Time;durP1;ratioP1;P1;durP2;ratioP2;P2;SDS_P1;SDS_P2;PMS_P1;PMS_P2;Temp;Humidity;BMP_temperature;BMP_pressure;BME280_temperature;BME280_humidity;BME280_pressure;Samples;Min_cycle;Max_cycle;Signal;HPM_P1;HPM_P2
2024/04/09 00:02:23;;;;;;;13.10;11.30;;;15.80;99.90;;;;;;6441110;22;20509;-79
2024/04/09 00:04:53;;;;;;;14.43;11.10;;;15.70;99.90;;;;;;6440748;22;20454;-77
2024/04/09 00:07:22;;;;;;;20.37;15.27;;;15.70;99.90;;;;;;6435118;22;20828;-78
2024/04/09 00:09:51;;;;;;;16.83;13.00;;;15.70;99.90;;;;;;6438402;22;20469;-79
2024/04/09 00:12:21;;;;;;;14.43;12.27;;;15.70;99.90;;;;;;6440260;22;20450;-79
2024/04/09 00:14:50;;;;;;;13.87;11.40;;;15.70;99.90;;;;;;6441070;22;20523;-79
2024/04/09 00:17:19;;;;;;;16.23;13.03;;;15.70;99.90;;;;;;6440251;22;20509;-80
2024/04/09 00:19:49;;;;;;;12.23;10.80;;;15.70;99.90;;;;;;6441174;22;20535;-79
2024/04/09 00:22:16;;;;;;;12.50;11.23;;;15.80;99.90;;;;;;6445231;22;20896;-77
2024/04/09 00:24:48;;;;;;;15.27;10.97;;;15.80;99.90;;;;;;6447610;22;20506;-77
2024/04/09 00:27:14;;;;;;;11.47;9.97;;;15.80;99.90;;;;;;6446298;22;20535;-79
2024/04/09 00:29:43;;;;;;;11.63;10.27;;;15.90;99.90;;;;;;6447830;22;20502;-77
2024/04/09 00:32:09;;;;;;;12.40;9.20;;;15.90;99.90;;;;;;6446818;22;20502;-76
2024/04/09 00:34:37;;;;;;;11.73;8.30;;;16.00;99.90;;;;;;6446134;22;20513;-78
2024/04/09 00:37:04;;;;;;;10.67;9.13;;;16.00;99.90;;;;;;6446040;22;20467;-77
2024/04/09 00:39:34;;;;;;;12.37;10.43;;;16.00;99.90;;;;;;6443080;22;20495;-78
2024/04/09 00:42:02;;;;;;;10.77;8.30;;;16.00;99.90;;;;;;6445655;22;20513;-79
2024/04/09 00:44:32;;;;;;;10.07;7.47;;;16.00;99.90;;;;;;6443532;22;20620;-78
2024/04/09 00:46:59;;;;;;;9.67;8.50;;;16.10;99.90;;;;;;6445114;22;20502;-80
2024/04/09 00:49:28;;;;;;;10.30;8.10;;;16.10;99.90;;;;;;6446392;22;20527;-79
2024/04/09 00:51:54;;;;;;;17.87;9.33;;;16.20;99.90;;;;;;6443410;22;20468;-78
2024/04/09 00:54:23;;;;;;;16.83;8.70;;;16.20;99.90;;;;;;6440303;22;20468;-79
2024/04/09 00:56:49;;;;;;;12.57;8.07;;;16.20;99.90;;;;;;6443079;22;20538;-79
2024/04/09 00:59:21;;;;;;;7.77;6.97;;;16.30;99.90;;;;;;6442219;22;20514;-79
2024/04/09 01:01:48;;;;;;;8.90;7.40;;;16.40;99.90;;;;;;6443430;22;20463;-80
2024/04/09 01:04:17;;;;;;;13.60;9.53;;;16.40;99.90;;;;;;6443407;22;20534;-79
2024/04/09 01:06:43;;;;;;;11.90;8.50;;;16.50;99.90;;;;;;6443454;22;20947;-80
2024/04/09 01:09:12;;;;;;;8.33;7.53;;;16.40;99.90;;;;;;6442376;22;20513;-78
2024/04/09 01:11:38;;;;;;;9.97;8.60;;;16.50;99.90;;;;;;6446716;22;20443;-77
2024/04/09 01:14:06;;;;;;;15.10;7.20;;;16.40;99.90;;;;;;6452799;22;20441;-76
2024/04/09 01:16:35;;;;;;;11.23;8.13;;;16.40;99.90;;;;;;6453509;22;20454;-78
2024/04/09 01:19:04;;;;;;;13.87;8.60;;;16.20;99.90;;;;;;6453638;22;20489;-77
2024/04/09 01:21:30;;;;;;;11.07;7.50;;;16.40;99.90;;;;;;6454236;22;20500;-77
2024/04/09 01:24:02;;;;;;;12.50;8.20;;;16.40;99.90;;;;;;6448885;22;20462;-78
2024/04/09 01:26:30;;;;;;;10.03;7.67;;;16.40;99.90;;;;;;6447711;22;20511;-79
2024/04/09 01:28:58;;;;;;;14.07;10.20;;;16.40;99.90;;;;;;6447164;22;20524;-78
2024/04/09 01:31:24;;;;;;;14.60;7.47;;;16.40;99.90;;;;;;6446878;22;20457;-78
2024/04/09 01:33:53;;;;;;;11.10;7.80;;;16.40;99.90;;;;;;6445704;22;20598;-78
2024/04/09 01:36:20;;;;;;;9.73;7.57;;;16.40;99.90;;;;;;6444342;22;20487;-80
2024/04/09 01:38:49;;;;;;;10.60;7.40;;;16.40;99.90;;;;;;6445638;22;20553;-79
2024/04/09 01:41:18;;;;;;;12.07;7.23;;;16.40;99.90;;;;;;6447797;22;20448;-78
2024/04/09 01:43:46;;;;;;;14.30;8.50;;;16.30;99.90;;;;;;6448083;22;20457;-79
2024/04/09 01:46:12;;;;;;;8.90;8.00;;;16.30;99.90;;;;;;6451918;22;20512;-77
2024/04/09 01:48:42;;;;;;;8.23;6.10;;;16.30;99.90;;;;;;6452837;22;20453;-78
2024/04/09 01:51:09;;;;;;;10.57;7.00;;;16.40;99.90;;;;;;6452586;22;20444;-78
2024/04/09 01:53:39;;;;;;;16.27;9.40;;;16.40;99.90;;;;;;6452260;22;20460;-78
2024/04/09 01:56:05;;;;;;;9.63;7.07;;;16.50;99.90;;;;;;6450699;22;20491;-78
2024/04/09 01:58:36;;;;;;;8.43;7.63;;;16.50;99.90;;;;;;6451585;22;20435;-77
2024/04/09 02:01:06;;;;;;;13.00;7.23;;;16.40;99.90;;;;;;6447876;22;20491;-80
2024/04/09 02:03:34;;;;;;;15.30;7.60;;;16.40;99.90;;;;;;6445699;22;20445;-79
2024/04/09 02:06:02;;;;;;;9.50;6.90;;;16.40;99.90;;;;;;6445605;22;20465;-79
2024/04/09 02:08:30;;;;;;;8.07;6.47;;;16.40;99.90;;;;;;6447295;22;20449;-78
2024/04/09 02:10:56;;;;;;;11.73;6.80;;;16.40;99.90;;;;;;6443935;22;20459;-77
2024/04/09 02:13:25;;;;;;;12.53;7.20;;;16.40;99.90;;;;;;6451259;22;20494;-78
2024/04/09 02:15:54;;;;;;;14.60;8.33;;;16.30;99.90;;;;;;6450689;22;20497;-79
2024/04/09 02:18:23;;;;;;;14.60;8.90;;;16.30;99.90;;;;;;6452075;22;20494;-78
2024/04/09 02:20:49;;;;;;;11.60;7.90;;;16.30;99.90;;;;;;6450944;22;20486;-79
2024/04/09 02:23:18;;;;;;;11.07;8.77;;;16.30;99.90;;;;;;6449544;22;20454;-79
2024/04/09 02:25:44;;;;;;;11.67;7.93;;;16.30;99.90;;;;;;6450669;22;20510;-79
2024/04/09 02:28:12;;;;;;;9.50;7.00;;;16.20;99.90;;;;;;6449297;22;20502;-79
2024/04/09 02:30:38;;;;;;;11.57;7.50;;;16.20;99.90;;;;;;6450314;22;20502;-77
2024/04/09 02:33:09;;;;;;;11.13;7.57;;;16.20;99.90;;;;;;6449941;22;20458;-78
2024/04/09 02:35:35;;;;;;;18.53;7.63;;;16.20;99.90;;;;;;6444930;22;20450;-80
2024/04/09 02:38:04;;;;;;;10.27;6.47;;;16.10;99.90;;;;;;6447578;22;20530;-78
2024/04/09 02:40:30;;;;;;;10.27;6.70;;;16.20;99.90;;;;;;6446806;22;20461;-80
2024/04/09 02:43:00;;;;;;;17.37;8.50;;;16.20;99.90;;;;;;6445963;22;20538;-77
2024/04/09 02:45:26;;;;;;;10.53;6.20;;;16.10;99.90;;;;;;6442485;22;20499;-78
2024/04/09 02:47:54;;;;;;;9.47;7.70;;;16.20;99.90;;;;;;6445040;22;20482;-79
2024/04/09 02:50:23;;;;;;;14.77;8.90;;;16.20;99.90;;;;;;6445736;22;20517;-78
2024/04/09 02:52:51;;;;;;;18.20;7.37;;;16.20;99.90;;;;;;6450194;22;20493;-78
2024/04/09 02:55:17;;;;;;;10.17;6.63;;;16.20;99.90;;;;;;6446999;22;20446;-78
2024/04/09 02:57:49;;;;;;;14.77;8.03;;;16.20;99.90;;;;;;6449038;22;20526;-79
2024/04/09 03:00:19;;;;;;;11.30;7.30;;;16.20;99.90;;;;;;6450551;22;20534;-78
2024/04/09 03:02:52;;;;;;;14.70;8.13;;;16.20;99.90;;;;;;6447352;22;20899;-81
2024/04/09 03:05:26;;;;;;;16.73;8.50;;;16.20;99.90;;;;;;6444631;22;20458;-77
2024/04/09 03:07:55;;;;;;;12.47;8.10;;;16.20;99.90;;;;;;6444964;22;20525;-77
2024/04/09 03:10:22;;;;;;;10.17;6.27;;;16.20;99.90;;;;;;6446683;22;20567;-78
2024/04/09 03:12:50;;;;;;;11.93;6.60;;;16.30;99.90;;;;;;6446504;22;20558;-79
2024/04/09 03:15:16;;;;;;;10.30;6.43;;;16.40;99.90;;;;;;6444722;22;20473;-79
2024/04/09 03:17:45;;;;;;;10.83;6.60;;;16.40;99.90;;;;;;6448397;22;20537;-80
2024/04/09 03:20:11;;;;;;;16.73;7.17;;;16.50;99.90;;;;;;6450680;22;20490;-78
2024/04/09 03:22:43;;;;;;;14.80;5.97;;;16.60;99.90;;;;;;6450501;22;20521;-78
2024/04/09 03:25:09;;;;;;;11.00;6.73;;;16.60;99.90;;;;;;6448472;22;20466;-78
2024/04/09 03:27:38;;;;;;;10.97;7.30;;;16.70;99.90;;;;;;6450250;22;20465;-80
2024/04/09 03:30:04;;;;;;;17.50;8.00;;;16.70;99.90;;;;;;6450031;22;20512;-81
2024/04/09 03:32:33;;;;;;;14.17;8.33;;;16.70;99.90;;;;;;6450194;22;20450;-79
2024/04/09 03:34:59;;;;;;;13.80;7.17;;;16.80;99.90;;;;;;6448179;22;20538;-78
2024/04/09 03:37:28;;;;;;;15.00;7.50;;;16.80;99.90;;;;;;6445413;22;20464;-77
2024/04/09 03:39:59;;;;;;;11.73;6.93;;;16.80;99.90;;;;;;6449677;22;20465;-79
2024/04/09 03:42:27;;;;;;;13.93;7.97;;;16.90;99.90;;;;;;6449473;22;20512;-78
2024/04/09 03:44:56;;;;;;;13.70;6.80;;;16.90;99.90;;;;;;6448060;22;20450;-78
2024/04/09 03:47:22;;;;;;;17.13;6.50;;;16.90;99.90;;;;;;6445028;22;20473;-78
2024/04/09 03:49:50;;;;;;;14.57;6.93;;;16.90;99.90;;;;;;6441803;22;20455;-78
2024/04/09 03:52:16;;;;;;;10.90;6.00;;;17.00;99.90;;;;;;6441916;22;20458;-77
2024/04/09 03:54:48;;;;;;;11.00;6.77;;;17.00;99.90;;;;;;6442028;22;20521;-77
2024/04/09 03:57:17;;;;;;;16.20;6.43;;;17.00;99.90;;;;;;6442703;22;20474;-78
2024/04/09 03:59:46;;;;;;;8.83;5.50;;;16.90;99.90;;;;;;6444286;22;20455;-77
2024/04/09 04:02:12;;;;;;;10.77;7.37;;;17.00;99.90;;;;;;6441705;22;20457;-78
2024/04/09 04:04:41;;;;;;;16.63;8.23;;;17.00;99.90;;;;;;6438034;22;20453;-80
2024/04/09 04:07:10;;;;;;;11.33;6.87;;;17.00;99.90;;;;;;6442428;22;20446;-78
2024/04/09 04:09:39;;;;;;;12.73;7.00;;;16.90;99.90;;;;;;6443429;22;20824;-78
2024/04/09 04:12:05;;;;;;;13.37;7.30;;;16.90;99.90;;;;;;6438991;22;20506;-79
2024/04/09 04:14:36;;;;;;;19.03;7.80;;;16.80;99.90;;;;;;6442187;22;20869;-79
2024/04/09 04:17:03;;;;;;;13.13;8.70;;;16.70;99.90;;;;;;6440658;22;20470;-80
2024/04/09 04:19:32;;;;;;;12.47;7.27;;;16.70;99.90;;;;;;6439938;22;20552;-79
2024/04/09 04:21:58;;;;;;;14.63;7.10;;;16.60;99.90;;;;;;6439545;22;20510;-79
2024/04/09 04:24:28;;;;;;;10.83;6.53;;;16.60;99.90;;;;;;6440892;22;20454;-78
2024/04/09 04:26:54;;;;;;;13.40;9.07;;;16.40;99.90;;;;;;6441180;22;20520;-77
2024/04/09 04:29:23;;;;;;;14.13;7.00;;;16.30;99.90;;;;;;6444201;22;20448;-77
2024/04/09 04:31:52;;;;;;;18.73;7.27;;;16.20;99.90;;;;;;6449523;22;20456;-77
2024/04/09 04:34:20;;;;;;;11.00;6.33;;;16.10;99.90;;;;;;6448844;22;20452;-79
2024/04/09 04:36:46;;;;;;;13.17;7.53;;;16.20;99.90;;;;;;6449745;22;20459;-79
2024/04/09 04:39:15;;;;;;;11.33;7.53;;;16.20;99.90;;;;;;6450334;22;20516;-78
2024/04/09 04:41:41;;;;;;;13.60;7.63;;;16.10;99.90;;;;;;6450732;22;20455;-77
2024/04/09 04:44:10;;;;;;;14.13;7.20;;;16.10;99.90;;;;;;6442277;22;20454;-79
2024/04/09 04:46:37;;;;;;;16.33;7.60;;;16.10;99.90;;;;;;6443724;22;20565;-79
2024/04/09 04:49:09;;;;;;;16.10;7.87;;;16.10;99.90;;;;;;6432634;22;20459;-79
2024/04/09 04:51:35;;;;;;;13.73;7.27;;;16.00;99.90;;;;;;6446133;22;20455;-78
2024/04/09 04:54:04;;;;;;;10.60;6.07;;;16.00;99.90;;;;;;6448400;22;20537;-78
2024/04/09 04:56:30;;;;;;;16.30;7.53;;;16.00;99.90;;;;;;6448907;22;20457;-80
2024/04/09 04:58:59;;;;;;;26.93;9.50;;;16.10;99.90;;;;;;6450738;22;20270;-79
2024/04/09 05:01:26;;;;;;;19.73;7.67;;;16.10;99.90;;;;;;6449000;22;20452;-80
2024/04/09 05:03:54;;;;;;;15.40;7.43;;;16.10;99.90;;;;;;6449135;22;20488;-83
2024/04/09 05:06:23;;;;;;;24.07;8.10;;;16.20;99.90;;;;;;6449235;22;20466;-82
2024/04/09 05:08:52;;;;;;;13.73;7.20;;;16.30;99.90;;;;;;6451019;22;20464;-81
2024/04/09 05:11:18;;;;;;;11.57;6.10;;;16.30;99.90;;;;;;6446995;22;20452;-78
2024/04/09 05:13:47;;;;;;;16.67;6.90;;;16.40;99.90;;;;;;6444895;22;20465;-82
2024/04/09 05:16:13;;;;;;;14.13;6.17;;;16.50;99.90;;;;;;6443278;22;20465;-80
2024/04/09 05:18:42;;;;;;;12.70;7.33;;;16.60;99.90;;;;;;6446144;22;20510;-79
2024/04/09 05:21:08;;;;;;;17.73;6.60;;;16.60;99.90;;;;;;6447047;22;20461;-79
2024/04/09 05:23:39;;;;;;;26.43;7.03;;;16.60;99.90;;;;;;6449365;22;20969;-79
2024/04/09 05:26:05;;;;;;;11.90;5.70;;;16.70;99.90;;;;;;6447937;22;20518;-80
2024/04/09 05:28:33;;;;;;;8.97;6.00;;;16.70;99.90;;;;;;6450000;22;20442;-79
2024/04/09 05:30:59;;;;;;;14.53;6.37;;;16.70;99.90;;;;;;6450300;22;20493;-80
2024/04/09 05:33:28;;;;;;;12.90;6.97;;;16.80;99.90;;;;;;6450743;22;20457;-81
2024/04/09 05:35:54;;;;;;;13.37;7.37;;;16.80;99.90;;;;;;6450749;22;20462;-80
2024/04/09 05:38:23;;;;;;;25.20;7.93;;;16.70;99.90;;;;;;6450405;22;20443;-79
2024/04/09 05:40:57;;;;;;;16.47;6.60;;;16.70;99.90;;;;;;6450336;22;20504;-79
2024/04/09 05:43:26;;;;;;;17.33;7.63;;;16.70;99.90;;;;;;6451388;22;20442;-80
2024/04/09 05:45:52;;;;;;;13.27;5.53;;;16.70;99.90;;;;;;6449649;22;20550;-79
2024/04/09 05:48:20;;;;;;;11.73;6.27;;;16.60;99.90;;;;;;6450715;22;20458;-79
2024/04/09 05:50:46;;;;;;;14.93;6.20;;;16.60;99.90;;;;;;6450342;22;20498;-80
2024/04/09 05:53:15;;;;;;;19.33;6.40;;;16.70;99.90;;;;;;6449807;22;20449;-79
2024/04/09 05:55:41;;;;;;;12.93;6.03;;;16.70;99.90;;;;;;6444791;22;20467;-80
2024/04/09 05:58:12;;;;;;;13.00;6.33;;;16.80;99.90;;;;;;6443463;22;20453;-80
2024/04/09 06:00:39;;;;;;;12.33;5.60;;;16.90;99.90;;;;;;6442739;22;20498;-80
2024/04/09 06:03:08;;;;;;;12.07;5.03;;;16.90;99.90;;;;;;6443368;22;20513;-79
2024/04/09 06:05:34;;;;;;;14.33;4.90;;;17.00;99.90;;;;;;6441873;22;20465;-81
2024/04/09 06:08:02;;;;;;;14.37;6.23;;;17.10;99.90;;;;;;6441902;22;21274;-80
2024/04/09 06:10:28;;;;;;;12.87;5.63;;;17.10;99.90;;;;;;6442973;22;20504;-80
2024/04/09 06:12:57;;;;;;;8.43;5.53;;;17.00;99.90;;;;;;6442417;22;20460;-80
2024/04/09 06:15:25;;;;;;;8.90;5.37;;;17.00;99.90;;;;;;6449153;22;20498;-81
2024/04/09 06:17:54;;;;;;;10.83;6.10;;;17.00;99.90;;;;;;6449970;22;20466;-80
2024/04/09 06:20:20;;;;;;;9.50;4.43;;;17.10;99.90;;;;;;6449493;22;20434;-81
2024/04/09 06:22:49;;;;;;;8.30;4.87;;;17.00;99.90;;;;;;6450220;22;20514;-78
2024/04/09 06:25:15;;;;;;;16.10;5.40;;;17.00;99.90;;;;;;6448726;22;20437;-80
2024/04/09 06:27:43;;;;;;;12.77;5.00;;;17.00;99.90;;;;;;6449105;22;20533;-80
2024/04/09 06:30:09;;;;;;;11.40;5.53;;;17.00;99.90;;;;;;6448950;22;20504;-79
2024/04/09 06:32:41;;;;;;;8.27;3.90;;;17.00;99.90;;;;;;6440720;22;20490;-81
2024/04/09 06:35:07;;;;;;;7.70;5.03;;;17.00;99.90;;;;;;6436792;22;20466;-82
2024/04/09 06:37:37;;;;;;;13.13;4.50;;;17.00;99.90;;;;;;6438062;22;20504;-80
2024/04/09 06:40:05;;;;;;;7.17;3.57;;;17.10;99.90;;;;;;6439394;22;20589;-81
2024/04/09 06:42:34;;;;;;;11.50;5.17;;;17.00;99.90;;;;;;6439904;22;20499;-80
2024/04/09 06:45:03;;;;;;;10.63;4.07;;;17.00;99.90;;;;;;6439980;22;20455;-79
2024/04/09 06:47:32;;;;;;;11.87;4.07;;;17.10;99.90;;;;;;6440928;22;20462;-82
2024/04/09 06:50:04;;;;;;;6.27;3.60;;;17.10;99.90;;;;;;6441161;22;20462;-80
2024/04/09 06:52:33;;;;;;;7.03;3.63;;;17.10;99.90;;;;;;6441450;22;20465;-82
2024/04/09 06:54:59;;;;;;;11.73;4.30;;;17.10;99.90;;;;;;6445997;22;20450;-81
2024/04/09 06:57:28;;;;;;;8.57;5.87;;;17.10;99.90;;;;;;6444735;22;20467;-80
2024/04/09 06:59:54;;;;;;;9.60;5.20;;;17.10;99.90;;;;;;6445277;22;20506;-82
2024/04/09 07:02:23;;;;;;;15.03;4.30;;;17.20;99.90;;;;;;6443214;22;20435;-80
2024/04/09 07:04:49;;;;;;;11.43;4.50;;;17.30;99.90;;;;;;6443581;22;20462;-81
2024/04/09 07:07:20;;;;;;;7.03;4.03;;;17.30;99.90;;;;;;6436902;22;20533;-81
2024/04/09 07:09:47;;;;;;;9.90;5.40;;;17.30;99.90;;;;;;6439639;22;20462;-81
2024/04/09 07:12:15;;;;;;;14.53;4.93;;;17.20;99.90;;;;;;6448592;22;20458;-81
2024/04/09 07:14:41;;;;;;;8.60;6.20;;;17.10;99.90;;;;;;6441069;22;20462;-81
2024/04/09 07:17:10;;;;;;;13.03;7.17;;;17.10;99.90;;;;;;6443289;22;20474;-81
2024/04/09 07:19:36;;;;;;;8.47;5.10;;;17.00;99.90;;;;;;6442296;22;20509;-82
2024/04/09 07:22:05;;;;;;;8.23;5.73;;;17.00;99.90;;;;;;6441578;22;20552;-83
2024/04/09 07:24:35;;;;;;;8.37;5.50;;;17.10;99.90;;;;;;6439598;22;20458;-82
2024/04/09 07:27:04;;;;;;;5.10;4.50;;;17.10;99.90;;;;;;6440240;22;20864;-83
2024/04/09 07:29:31;;;;;;;9.53;4.70;;;17.30;99.90;;;;;;6439224;22;20455;-81
2024/04/09 07:32:00;;;;;;;5.23;4.13;;;17.50;99.90;;;;;;6439138;22;20535;-82
2024/04/09 07:34:26;;;;;;;7.83;4.47;;;17.90;99.90;;;;;;6437173;22;20462;-82
2024/04/09 07:36:55;;;;;;;5.80;3.67;;;18.20;99.90;;;;;;6437724;22;20474;-83
2024/04/09 07:39:26;;;;;;;10.57;4.90;;;18.40;99.90;;;;;;6437003;22;20584;-83
2024/04/09 07:42:29;;;;;;;11.20;5.43;;;18.60;99.90;;;;;;6438517;22;20510;-83
2024/04/09 07:45:15;;;;;;;;;;;;;;;;;;;;;
2024/04/09 07:51:25;;;;;;;13.27;5.20;;;18.30;99.90;;;;;;6338789;22;20472;-81
2024/04/09 07:53:54;;;;;;;10.77;4.63;;;18.00;99.90;;;;;;6339701;22;20476;-82
2024/04/09 07:56:26;;;;;;;8.87;4.90;;;17.90;99.90;;;;;;6340422;22;20476;-84
2024/04/09 07:59:12;;;;;;;10.13;4.33;;;17.70;99.90;;;;;;6340695;22;20511;-80
2024/04/09 08:01:41;;;;;;;8.13;5.07;;;17.50;99.90;;;;;;6403459;22;20505;-83
2024/04/09 08:04:07;;;;;;;7.70;4.97;;;17.60;99.90;;;;;;6436320;22;20616;-81
2024/04/09 08:06:36;;;;;;;5.50;4.10;;;17.60;99.90;;;;;;6435736;22;20466;-83
2024/04/09 08:09:02;;;;;;;8.07;3.63;;;17.70;99.90;;;;;;6439291;22;20473;-82
2024/04/09 08:11:30;;;;;;;9.30;4.83;;;17.90;99.90;;;;;;6443284;22;20550;-83
2024/04/09 08:14:09;;;;;;;8.47;5.43;;;18.00;99.90;;;;;;6438702;22;20543;-83
2024/04/09 08:16:38;;;;;;;5.37;4.17;;;17.90;99.90;;;;;;6439973;22;20454;-81
2024/04/09 08:19:08;;;;;;;8.07;4.10;;;17.70;99.90;;;;;;6437720;22;20458;-82
2024/04/09 08:21:42;;;;;;;6.03;4.80;;;17.50;99.90;;;;;;6436222;22;20447;-82
2024/04/09 08:27:30;;;;;;;10.33;5.37;;;17.40;99.90;;;;;;6429509;22;20789;-81
2024/04/09 08:30:00;;;;;;;9.47;4.97;;;17.40;99.90;;;;;;6436280;22;20540;-82
2024/04/09 08:32:29;;;;;;;8.23;5.63;;;17.30;99.90;;;;;;6435693;22;20454;-80
2024/04/09 08:34:56;;;;;;;9.87;6.77;;;17.20;99.90;;;;;;6436816;22;20789;-81
2024/04/09 08:37:24;;;;;;;6.83;5.23;;;17.10;99.90;;;;;;6438292;22;21020;-82
2024/04/09 08:39:53;;;;;;;12.70;6.60;;;17.00;99.90;;;;;;6438744;22;20512;-82
2024/04/09 08:42:22;;;;;;;11.67;6.53;;;17.00;99.90;;;;;;6437489;22;20463;-81
2024/04/09 08:44:49;;;;;;;10.00;7.00;;;17.00;99.90;;;;;;6440684;22;20499;-82
2024/04/09 08:47:22;;;;;;;9.17;6.40;;;17.10;99.90;;;;;;6439527;22;20533;-82
2024/04/09 08:49:48;;;;;;;10.80;7.30;;;17.10;99.90;;;;;;6440642;22;20460;-83
2024/04/09 08:52:20;;;;;;;9.33;8.20;;;17.30;99.90;;;;;;6440173;22;20478;-82
2024/04/09 08:54:46;;;;;;;7.93;7.13;;;17.50;99.90;;;;;;6439384;22;20438;-79
2024/04/09 08:57:15;;;;;;;7.43;6.70;;;17.60;99.90;;;;;;6441408;22;20518;-82
2024/04/09 08:59:41;;;;;;;8.53;6.60;;;17.90;99.90;;;;;;6444123;22;20549;-83
2024/04/09 09:02:17;;;;;;;8.47;7.20;;;18.50;99.90;;;;;;6452125;22;20884;-82
2024/04/09 09:04:58;;;;;;;9.97;7.60;;;18.60;99.90;;;;;;6451368;22;20442;-81
2024/04/09 09:07:27;;;;;;;9.40;7.77;;;18.70;99.90;;;;;;6451846;22;20482;-82
2024/04/09 09:10:06;;;;;;;7.80;7.03;;;18.80;99.90;;;;;;6451099;22;20454;-84
2024/04/09 09:12:35;;;;;;;10.23;6.90;;;18.80;99.90;;;;;;6411212;22;20496;-82
2024/04/09 09:15:01;;;;;;;8.93;7.80;;;18.70;99.90;;;;;;6451438;22;20450;-83
2024/04/09 09:17:31;;;;;;;9.70;7.77;;;18.40;99.90;;;;;;6451683;22;20545;-83
2024/04/09 09:20:01;;;;;;;11.03;8.60;;;18.30;99.90;;;;;;6451857;22;20525;-82
2024/04/09 09:22:35;;;;;;;12.20;8.67;;;18.20;99.90;;;;;;6450960;22;20442;-82
2024/04/09 09:25:01;;;;;;;12.63;8.97;;;18.40;99.90;;;;;;6451223;22;20457;-81
2024/04/09 09:27:30;;;;;;;11.33;8.00;;;18.40;99.90;;;;;;6447224;22;20534;-80
2024/04/09 09:29:59;;;;;;;12.07;9.40;;;18.40;99.90;;;;;;6439118;22;20577;-81
2024/04/09 09:32:28;;;;;;;9.90;7.90;;;18.30;99.90;;;;;;6442383;22;20446;-81
2024/04/09 09:34:55;;;;;;;12.60;9.70;;;18.60;99.90;;;;;;6448413;22;20450;-80
2024/04/09 09:37:31;;;;;;;10.20;7.50;;;19.10;99.90;;;;;;6450489;22;20466;-79
2024/04/09 09:39:58;;;;;;;10.17;8.33;;;19.20;99.90;;;;;;6449714;22;20525;-82
2024/04/09 09:42:28;;;;;;;11.83;7.83;;;19.10;99.90;;;;;;6449040;22;20502;-82
2024/04/09 09:44:56;;;;;;;12.10;7.50;;;18.90;99.90;;;;;;6449848;22;20499;-80
2024/04/09 09:47:25;;;;;;;9.97;8.10;;;18.60;99.90;;;;;;6447082;22;20483;-84
2024/04/09 09:49:52;;;;;;;12.27;9.70;;;18.20;99.90;;;;;;6445296;22;20515;-86
2024/04/09 09:52:21;;;;;;;13.27;8.57;;;18.00;99.90;;;;;;6442898;22;20458;-84
2024/04/09 09:54:50;;;;;;;8.40;7.30;;;17.90;99.90;;;;;;6443548;22;20462;-83
2024/04/09 09:57:23;;;;;;;11.13;6.50;;;17.80;99.90;;;;;;6442574;22;20482;-82
2024/04/09 09:59:57;;;;;;;12.23;8.47;;;17.80;99.90;;;;;;6441833;22;20501;-82
2024/04/09 10:02:28;;;;;;;9.00;7.40;;;17.70;99.90;;;;;;6439462;22;20465;-84
2024/04/09 10:04:55;;;;;;;9.53;8.43;;;17.70;99.90;;;;;;6443258;22;20457;-84
2024/04/09 10:07:24;;;;;;;10.13;9.10;;;17.50;99.90;;;;;;6442650;22;20521;-84
2024/04/09 10:09:54;;;;;;;12.70;9.40;;;17.40;99.90;;;;;;6443294;22;20466;-83
2024/04/09 10:12:23;;;;;;;12.67;9.73;;;17.30;99.90;;;;;;6444118;22;20457;-85
2024/04/09 10:14:55;;;;;;;13.27;8.90;;;17.30;99.90;;;;;;6443223;22;20462;-82
2024/04/09 10:17:24;;;;;;;12.13;9.87;;;17.30;99.90;;;;;;6447887;22;20514;-83
2024/04/09 10:19:50;;;;;;;10.17;8.23;;;17.10;99.90;;;;;;6447924;22;20459;-82
2024/04/09 10:22:19;;;;;;;12.87;7.53;;;17.00;99.90;;;;;;6445599;22;20523;-84
2024/04/09 10:24:45;;;;;;;8.47;7.60;;;17.00;99.90;;;;;;6443835;22;20778;-83
2024/04/09 10:27:21;;;;;;;17.80;9.33;;;16.90;99.90;;;;;;6444416;22;20541;-83
2024/04/09 10:29:53;;;;;;;10.10;7.93;;;16.90;99.90;;;;;;6447619;22;20464;-83
2024/04/09 10:32:24;;;;;;;8.97;6.77;;;16.80;99.90;;;;;;6446523;22;20525;-83
2024/04/09 10:34:51;;;;;;;10.63;8.33;;;16.70;99.90;;;;;;6446890;22;20452;-83
2024/04/09 10:37:20;;;;;;;11.30;8.30;;;16.70;99.90;;;;;;6447776;22;20519;-81
2024/04/09 10:39:46;;;;;;;13.80;8.50;;;16.60;99.90;;;;;;6450052;22;20454;-83
2024/04/09 10:42:22;;;;;;;11.83;8.10;;;16.40;99.90;;;;;;6451129;22;20528;-84
2024/04/09 10:44:48;;;;;;;6.80;6.10;;;16.20;99.90;;;;;;6450516;22;20928;-83
2024/04/09 10:47:19;;;;;;;12.40;6.20;;;16.00;99.90;;;;;;6446924;22;20470;-82
2024/04/09 10:49:46;;;;;;;8.20;5.53;;;15.90;99.90;;;;;;6447773;22;20458;-85
2024/04/09 10:52:15;;;;;;;11.20;7.17;;;15.90;99.90;;;;;;6447188;22;20467;-84
2024/04/09 10:54:41;;;;;;;11.60;6.23;;;15.70;99.90;;;;;;6444866;22;20462;-83
2024/04/09 10:57:10;;;;;;;7.03;6.32;;;15.60;99.90;;;;;;6447286;22;20529;-84
2024/04/09 10:59:38;;;;;;;6.53;5.75;;;15.60;99.90;;;;;;6446113;22;20257;-82
2024/04/09 11:02:08;;;;;;;10.70;6.80;;;15.50;99.90;;;;;;6442912;22;20239;-83
2024/04/09 11:04:34;;;;;;;6.43;5.87;;;15.30;99.90;;;;;;6444313;22;20469;-83
2024/04/09 11:07:03;;;;;;;10.50;7.37;;;15.30;99.90;;;;;;6443590;22;20534;-84
2024/04/09 11:09:30;;;;;;;9.88;6.82;;;15.30;99.90;;;;;;6441002;22;20462;-84
2024/04/09 11:11:58;;;;;;;7.40;4.85;;;15.30;99.90;;;;;;6440448;22;20229;-86
2024/04/09 11:14:24;;;;;;;6.00;4.90;;;15.20;99.90;;;;;;6438564;22;20218;-82
2024/04/09 11:16:57;;;;;;;4.97;4.43;;;15.20;99.90;;;;;;6442233;22;20243;-82
2024/04/09 11:19:25;;;;;;;8.07;4.13;;;15.20;99.90;;;;;;6442483;22;20222;-81
2024/04/09 11:21:54;;;;;;;3.92;3.55;;;15.10;99.90;;;;;;6442101;22;20222;-82
2024/04/09 11:24:21;;;;;;;5.30;3.75;;;15.00;99.90;;;;;;6441572;22;20273;-83
2024/04/09 11:26:50;;;;;;;5.43;3.70;;;14.90;99.90;;;;;;6445127;22;20238;-82
2024/04/09 11:29:20;;;;;;;6.60;4.28;;;14.80;99.90;;;;;;6445885;22;20249;-81
2024/04/09 11:31:49;;;;;;;4.45;4.00;;;14.80;99.90;;;;;;6446267;22;20206;-83
2024/04/09 11:34:28;;;;;;;4.45;3.65;;;14.70;99.90;;;;;;6445088;22;20745;-82
2024/04/09 11:36:58;;;;;;;4.55;3.55;;;14.70;99.90;;;;;;6444595;22;20234;-81
2024/04/09 11:39:25;;;;;;;7.70;4.10;;;14.80;99.90;;;;;;6442206;22;20223;-83
2024/04/09 11:41:54;;;;;;;5.07;3.20;;;14.70;99.90;;;;;;6440239;22;20628;-83
2024/04/09 11:44:20;;;;;;;3.33;3.03;;;14.70;99.90;;;;;;6439981;22;20215;-82
2024/04/09 11:46:48;;;;;;;4.80;3.70;;;14.80;99.90;;;;;;6439188;22;20272;-81
2024/04/09 11:49:14;;;;;;;4.05;3.65;;;14.70;99.90;;;;;;6438683;22;20265;-83
2024/04/09 11:51:46;;;;;;;3.60;3.30;;;14.70;99.90;;;;;;6439139;22;20237;-82
2024/04/09 11:54:12;;;;;;;4.03;3.55;;;14.70;99.90;;;;;;6443381;22;20218;-82
2024/04/09 11:56:41;;;;;;;6.47;3.72;;;14.60;99.90;;;;;;6443818;22;20243;-81
2024/04/09 11:59:07;;;;;;;5.85;4.68;;;14.60;99.90;;;;;;6444625;22;20221;-81
2024/04/09 12:01:36;;;;;;;6.50;2.97;;;14.50;99.90;;;;;;6443258;22;20304;-83
2024/04/09 12:04:02;;;;;;;4.13;2.85;;;14.30;99.90;;;;;;6439706;22;20337;-82
2024/04/09 12:06:31;;;;;;;3.37;3.03;;;14.20;99.90;;;;;;6439969;22;20230;-81
2024/04/09 12:08:59;;;;;;;7.57;5.95;;;14.20;99.90;;;;;;6445420;22;20462;-82
2024/04/09 12:11:29;;;;;;;6.78;5.78;;;14.10;99.90;;;;;;6450547;22;20226;-81
2024/04/09 12:13:55;;;;;;;6.13;3.65;;;14.20;99.90;;;;;;6450774;22;20210;-82
2024/04/09 12:16:23;;;;;;;13.00;9.37;;;14.20;99.90;;;;;;6452175;22;20257;-80
2024/04/09 12:18:49;;;;;;;6.90;4.28;;;14.20;99.90;;;;;;6453030;22;21027;-82
2024/04/09 12:21:18;;;;;;;5.33;4.13;;;14.20;99.90;;;;;;6452210;22;20218;-82
2024/04/09 12:23:44;;;;;;;7.00;4.10;;;14.10;99.90;;;;;;6450821;22;20906;-81
2024/04/09 12:26:15;;;;;;;6.23;4.53;;;14.00;99.90;;;;;;6446253;22;20264;-82
2024/04/09 12:28:43;;;;;;;4.78;4.28;;;14.00;99.90;;;;;;6441507;22;20513;-83
2024/04/09 12:31:12;;;;;;;5.13;4.63;;;13.90;99.90;;;;;;6440430;22;20277;-83
2024/04/09 12:33:38;;;;;;;6.97;4.32;;;13.90;99.90;;;;;;6443522;22;20260;-81
2024/04/09 12:36:07;;;;;;;4.47;3.90;;;13.90;99.90;;;;;;6443413;22;20226;-83
2024/04/09 12:38:34;;;;;;;4.07;3.67;;;13.80;99.90;;;;;;6443798;22;20458;-84
2024/04/09 12:41:02;;;;;;;3.22;2.95;;;13.70;99.90;;;;;;6443578;22;20643;-83
2024/04/09 12:43:32;;;;;;;3.03;2.58;;;13.70;99.90;;;;;;6443814;22;20223;-83
2024/04/09 12:46:02;;;;;;;6.03;3.65;;;13.80;99.90;;;;;;6441960;22;20310;-82
2024/04/09 12:48:28;;;;;;;4.68;3.00;;;13.80;99.90;;;;;;6444034;22;20646;-80
2024/04/09 12:50:58;;;;;;;3.03;2.20;;;13.80;99.90;;;;;;6441034;22;20214;-83
2024/04/09 12:53:25;;;;;;;4.53;2.90;;;13.80;99.90;;;;;;6440034;22;20458;-82
2024/04/09 12:55:54;;;;;;;3.45;2.50;;;13.80;99.90;;;;;;6441957;22;20227;-83